sensor_id;sensor_type;location;lat;lon;timestamp;temperature;humidity
62007;DHT22;47963;53.008;6.754;2022-10-31T00:00:30;13.60;99.90
62007;DHT22;47963;53.008;6.754;2022-10-31T00:02:55;13.50;99.90
62007;DHT22;47963;53.008;6.754;2022-10-31T00:05:21;13.50;99.90
62007;DHT22;47963;53.008;6.754;2022-10-31T00:07:46;13.50;99.90
62007;DHT22;47963;53.008;6.754;2022-10-31T00:10:12;13.40;99.90
62007;DHT22;47963;53.008;6.754;2022-10-31T00:12:38;13.50;99.90
62007;DHT22;47963;53.008;6.754;2022-10-31T00:15:04;13.40;99.90
62007;DHT22;47963;53.008;6.754;2022-10-31T00:17:29;13.40;99.90
62007;DHT22;47963;53.008;6.754;2022-10-31T00:19:55;13.50;99.90
62007;DHT22;47963;53.008;6.754;2022-10-31T00:22:22;13.40;99.90
62007;DHT22;47963;53.008;6.754;2022-10-31T00:24:47;13.30;99.90
62007;DHT22;47963;53.008;6.754;2022-10-31T00:27:13;13.40;99.90
62007;DHT22;47963;53.008;6.754;2022-10-31T00:29:38;13.40;99.90
62007;DHT22;47963;53.008;6.754;2022-10-31T00:32:04;13.40;99.90
62007;DHT22;47963;53.008;6.754;2022-10-31T00:34:30;13.40;99.90
62007;DHT22;47963;53.008;6.754;2022-10-31T00:36:55;13.40;99.90
62007;DHT22;47963;53.008;6.754;2022-10-31T00:39:21;13.40;99.90
62007;DHT22;47963;53.008;6.754;2022-10-31T00:41:46;13.40;99.90
62007;DHT22;47963;53.008;6.754;2022-10-31T00:44:12;13.40;99.90
62007;DHT22;47963;53.008;6.754;2022-10-31T00:46:38;13.30;99.90
62007;DHT22;47963;53.008;6.754;2022-10-31T00:49:03;13.30;99.90
62007;DHT22;47963;53.008;6.754;2022-10-31T00:51:29;13.40;99.90
62007;DHT22;47963;53.008;6.754;2022-10-31T00:53:54;13.30;99.90
62007;DHT22;47963;53.008;6.754;2022-10-31T00:56:20;13.30;99.90
62007;DHT22;47963;53.008;6.754;2022-10-31T00:58:46;13.30;99.90
62007;DHT22;47963;53.008;6.754;2022-10-31T01:01:11;13.30;99.90
62007;DHT22;47963;53.008;6.754;2022-10-31T01:03:38;13.30;99.90
62007;DHT22;47963;53.008;6.754;2022-10-31T01:06:10;13.30;99.90
62007;DHT22;47963;53.008;6.754;2022-10-31T01:08:37;13.30;99.90
62007;DHT22;47963;53.008;6.754;2022-10-31T01:11:12;13.30;99.90
62007;DHT22;47963;53.008;6.754;2022-10-31T01:13:39;13.20;99.90
62007;DHT22;47963;53.008;6.754;2022-10-31T01:16:07;13.30;99.90
62007;DHT22;47963;53.008;6.754;2022-10-31T01:18:33;13.30;99.90
62007;DHT22;47963;53.008;6.754;2022-10-31T01:21:17;13.30;99.90
62007;DHT22;47963;53.008;6.754;2022-10-31T01:23:42;13.30;99.90
62007;DHT22;47963;53.008;6.754;2022-10-31T01:26:19;13.30;99.90
62007;DHT22;47963;53.008;6.754;2022-10-31T01:28:51;13.30;99.90
62007;DHT22;47963;53.008;6.754;2022-10-31T01:31:19;13.30;99.90
62007;DHT22;47963;53.008;6.754;2022-10-31T01:33:45;13.20;99.90
62007;DHT22;47963;53.008;6.754;2022-10-31T01:38:44;13.20;99.90
62007;DHT22;47963;53.008;6.754;2022-10-31T01:41:11;13.20;99.90
62007;DHT22;47963;53.008;6.754;2022-10-31T01:46:12;13.20;99.90
62007;DHT22;47963;53.008;6.754;2022-10-31T01:48:39;13.20;99.90
62007;DHT22;47963;53.008;6.754;2022-10-31T01:51:06;13.20;99.90
62007;DHT22;47963;53.008;6.754;2022-10-31T01:53:32;13.10;99.90
62007;DHT22;47963;53.008;6.754;2022-10-31T01:55:59;13.10;99.90
62007;DHT22;47963;53.008;6.754;2022-10-31T01:58:28;13.10;99.90
62007;DHT22;47963;53.008;6.754;2022-10-31T02:00:58;13.10;99.90
62007;DHT22;47963;53.008;6.754;2022-10-31T02:03:25;13.10;99.90
62007;DHT22;47963;53.008;6.754;2022-10-31T02:05:53;12.90;99.90
62007;DHT22;47963;53.008;6.754;2022-10-31T02:08:27;12.90;99.90
62007;DHT22;47963;53.008;6.754;2022-10-31T02:10:54;13.00;99.90
62007;DHT22;47963;53.008;6.754;2022-10-31T02:13:22;12.90;99.90
62007;DHT22;47963;53.008;6.754;2022-10-31T02:15:51;12.80;99.90
62007;DHT22;47963;53.008;6.754;2022-10-31T02:18:18;12.90;99.90
62007;DHT22;47963;53.008;6.754;2022-10-31T02:21:07;12.90;99.90
62007;DHT22;47963;53.008;6.754;2022-10-31T02:24:02;12.80;99.90
62007;DHT22;47963;53.008;6.754;2022-10-31T02:34:45;12.80;99.90
62007;DHT22;47963;53.008;6.754;2022-10-31T02:40:10;12.70;99.90
62007;DHT22;47963;53.008;6.754;2022-10-31T02:45:41;12.70;99.90
62007;DHT22;47963;53.008;6.754;2022-10-31T02:48:18;12.70;99.90
62007;DHT22;47963;53.008;6.754;2022-10-31T02:50:55;12.70;99.90
62007;DHT22;47963;53.008;6.754;2022-10-31T02:53:22;12.70;99.90
62007;DHT22;47963;53.008;6.754;2022-10-31T02:58:52;12.70;99.90
62007;DHT22;47963;53.008;6.754;2022-10-31T03:07:08;12.70;99.90
62007;DHT22;47963;53.008;6.754;2022-10-31T03:10:25;12.70;99.90
62007;DHT22;47963;53.008;6.754;2022-10-31T03:13:08;12.60;99.90
62007;DHT22;47963;53.008;6.754;2022-10-31T03:15:38;12.60;99.90
62007;DHT22;47963;53.008;6.754;2022-10-31T03:18:11;12.60;99.90
62007;DHT22;47963;53.008;6.754;2022-10-31T03:20:48;12.60;99.90
62007;DHT22;47963;53.008;6.754;2022-10-31T03:23:18;12.60;99.90
62007;DHT22;47963;53.008;6.754;2022-10-31T03:25:45;12.60;99.90
62007;DHT22;47963;53.008;6.754;2022-10-31T03:28:14;12.50;99.90
62007;DHT22;47963;53.008;6.754;2022-10-31T03:30:43;12.50;99.90
62007;DHT22;47963;53.008;6.754;2022-10-31T03:33:15;12.50;99.90
62007;DHT22;47963;53.008;6.754;2022-10-31T03:35:45;12.40;99.90
62007;DHT22;47963;53.008;6.754;2022-10-31T03:38:13;12.40;99.90
62007;DHT22;47963;53.008;6.754;2022-10-31T03:40:41;12.40;99.90
62007;DHT22;47963;53.008;6.754;2022-10-31T03:43:13;12.30;99.90
62007;DHT22;47963;53.008;6.754;2022-10-31T03:45:44;12.30;99.90
62007;DHT22;47963;53.008;6.754;2022-10-31T03:48:11;12.20;99.90
62007;DHT22;47963;53.008;6.754;2022-10-31T03:51:07;12.10;99.90
62007;DHT22;47963;53.008;6.754;2022-10-31T03:53:39;12.10;99.90
62007;DHT22;47963;53.008;6.754;2022-10-31T03:56:11;12.10;99.90
62007;DHT22;47963;53.008;6.754;2022-10-31T03:58:45;12.10;99.90
62007;DHT22;47963;53.008;6.754;2022-10-31T04:01:15;12.10;99.90
62007;DHT22;47963;53.008;6.754;2022-10-31T04:03:42;12.10;99.90
62007;DHT22;47963;53.008;6.754;2022-10-31T04:06:12;12.00;99.90
62007;DHT22;47963;53.008;6.754;2022-10-31T04:08:49;12.00;99.90
62007;DHT22;47963;53.008;6.754;2022-10-31T04:11:18;12.00;99.90
62007;DHT22;47963;53.008;6.754;2022-10-31T04:13:46;12.00;99.90
62007;DHT22;47963;53.008;6.754;2022-10-31T04:16:13;12.00;99.90
62007;DHT22;47963;53.008;6.754;2022-10-31T04:18:40;11.90;99.90
62007;DHT22;47963;53.008;6.754;2022-10-31T04:21:07;11.90;99.90
62007;DHT22;47963;53.008;6.754;2022-10-31T04:23:34;11.90;99.90
62007;DHT22;47963;53.008;6.754;2022-10-31T04:26:00;11.90;99.90
62007;DHT22;47963;53.008;6.754;2022-10-31T04:28:26;11.90;99.90
62007;DHT22;47963;53.008;6.754;2022-10-31T04:30:52;11.80;99.90
62007;DHT22;47963;53.008;6.754;2022-10-31T04:33:18;11.80;99.90
62007;DHT22;47963;53.008;6.754;2022-10-31T04:35:44;11.90;99.90
62007;DHT22;47963;53.008;6.754;2022-10-31T04:38:09;11.80;99.90
62007;DHT22;47963;53.008;6.754;2022-10-31T04:40:35;11.80;99.90
62007;DHT22;47963;53.008;6.754;2022-10-31T04:43:01;11.80;99.90
62007;DHT22;47963;53.008;6.754;2022-10-31T04:45:26;11.80;99.90
62007;DHT22;47963;53.008;6.754;2022-10-31T04:47:52;11.80;99.90
62007;DHT22;47963;53.008;6.754;2022-10-31T04:50:17;11.80;99.90
62007;DHT22;47963;53.008;6.754;2022-10-31T04:52:45;11.70;99.90
62007;DHT22;47963;53.008;6.754;2022-10-31T04:55:12;11.70;99.90
62007;DHT22;47963;53.008;6.754;2022-10-31T04:57:45;11.70;99.90
62007;DHT22;47963;53.008;6.754;2022-10-31T05:00:13;11.60;99.90
62007;DHT22;47963;53.008;6.754;2022-10-31T05:02:51;11.60;99.90
62007;DHT22;47963;53.008;6.754;2022-10-31T05:05:19;11.50;99.90
62007;DHT22;47963;53.008;6.754;2022-10-31T05:07:46;11.50;99.90
62007;DHT22;47963;53.008;6.754;2022-10-31T05:10:16;11.50;99.90
62007;DHT22;47963;53.008;6.754;2022-10-31T05:12:49;11.50;99.90
62007;DHT22;47963;53.008;6.754;2022-10-31T05:15:16;11.50;99.90
62007;DHT22;47963;53.008;6.754;2022-10-31T05:17:42;11.40;99.90
62007;DHT22;47963;53.008;6.754;2022-10-31T05:20:09;11.40;99.90
62007;DHT22;47963;53.008;6.754;2022-10-31T05:22:35;11.40;99.90
62007;DHT22;47963;53.008;6.754;2022-10-31T05:25:01;11.40;99.90
62007;DHT22;47963;53.008;6.754;2022-10-31T05:27:27;11.40;99.90
62007;DHT22;47963;53.008;6.754;2022-10-31T05:29:52;11.30;99.90
62007;DHT22;47963;53.008;6.754;2022-10-31T05:32:18;11.30;99.90
62007;DHT22;47963;53.008;6.754;2022-10-31T05:34:44;11.30;99.90
62007;DHT22;47963;53.008;6.754;2022-10-31T05:37:09;11.20;99.90
62007;DHT22;47963;53.008;6.754;2022-10-31T05:39:35;11.20;99.90
62007;DHT22;47963;53.008;6.754;2022-10-31T05:42:00;11.20;99.90
62007;DHT22;47963;53.008;6.754;2022-10-31T05:44:26;11.10;99.90
62007;DHT22;47963;53.008;6.754;2022-10-31T05:46:52;11.10;99.90
62007;DHT22;47963;53.008;6.754;2022-10-31T05:49:17;11.10;99.90
62007;DHT22;47963;53.008;6.754;2022-10-31T05:51:43;11.10;99.90
62007;DHT22;47963;53.008;6.754;2022-10-31T05:54:09;11.10;99.90
62007;DHT22;47963;53.008;6.754;2022-10-31T05:56:34;11.10;99.90
62007;DHT22;47963;53.008;6.754;2022-10-31T05:59:00;11.10;99.90
62007;DHT22;47963;53.008;6.754;2022-10-31T06:01:26;11.10;99.90
62007;DHT22;47963;53.008;6.754;2022-10-31T06:03:51;11.10;99.90
62007;DHT22;47963;53.008;6.754;2022-10-31T06:06:17;11.10;99.90
62007;DHT22;47963;53.008;6.754;2022-10-31T06:08:43;11.10;99.90
62007;DHT22;47963;53.008;6.754;2022-10-31T06:11:08;11.10;99.90
62007;DHT22;47963;53.008;6.754;2022-10-31T06:13:34;11.10;99.90
62007;DHT22;47963;53.008;6.754;2022-10-31T06:16:00;11.10;99.90
62007;DHT22;47963;53.008;6.754;2022-10-31T06:18:25;11.10;99.90
62007;DHT22;47963;53.008;6.754;2022-10-31T06:20:51;11.10;99.90
62007;DHT22;47963;53.008;6.754;2022-10-31T06:23:16;11.00;99.90
62007;DHT22;47963;53.008;6.754;2022-10-31T06:25:42;11.00;99.90
62007;DHT22;47963;53.008;6.754;2022-10-31T06:28:08;11.00;99.90
62007;DHT22;47963;53.008;6.754;2022-10-31T06:30:33;11.00;99.90
62007;DHT22;47963;53.008;6.754;2022-10-31T06:33:05;11.10;99.90
62007;DHT22;47963;53.008;6.754;2022-10-31T06:35:31;11.10;99.90
62007;DHT22;47963;53.008;6.754;2022-10-31T06:37:57;11.10;99.90
62007;DHT22;47963;53.008;6.754;2022-10-31T06:40:23;11.00;99.90
62007;DHT22;47963;53.008;6.754;2022-10-31T06:42:59;11.00;99.90
62007;DHT22;47963;53.008;6.754;2022-10-31T06:45:25;11.00;99.90
62007;DHT22;47963;53.008;6.754;2022-10-31T06:47:55;11.10;99.90
62007;DHT22;47963;53.008;6.754;2022-10-31T06:50:22;11.00;99.90
62007;DHT22;47963;53.008;6.754;2022-10-31T06:52:52;11.10;99.90
62007;DHT22;47963;53.008;6.754;2022-10-31T06:55:18;11.10;99.90
62007;DHT22;47963;53.008;6.754;2022-10-31T06:57:56;11.10;99.90
62007;DHT22;47963;53.008;6.754;2022-10-31T07:00:22;11.10;99.90
62007;DHT22;47963;53.008;6.754;2022-10-31T07:02:56;11.10;99.90
62007;DHT22;47963;53.008;6.754;2022-10-31T07:05:22;11.20;99.90
62007;DHT22;47963;53.008;6.754;2022-10-31T07:07:51;11.20;99.90
62007;DHT22;47963;53.008;6.754;2022-10-31T07:10:17;11.20;99.90
62007;DHT22;47963;53.008;6.754;2022-10-31T07:12:42;11.10;99.90
62007;DHT22;47963;53.008;6.754;2022-10-31T07:15:08;11.10;99.90
62007;DHT22;47963;53.008;6.754;2022-10-31T07:17:34;11.10;99.90
62007;DHT22;47963;53.008;6.754;2022-10-31T07:20:01;11.20;99.90
62007;DHT22;47963;53.008;6.754;2022-10-31T07:22:35;11.10;99.90
62007;DHT22;47963;53.008;6.754;2022-10-31T07:25:01;11.10;99.90
62007;DHT22;47963;53.008;6.754;2022-10-31T07:27:27;11.10;99.90
62007;DHT22;47963;53.008;6.754;2022-10-31T07:29:52;11.10;99.90
62007;DHT22;47963;53.008;6.754;2022-10-31T07:32:18;11.10;99.90
62007;DHT22;47963;53.008;6.754;2022-10-31T07:34:44;11.10;99.90
62007;DHT22;47963;53.008;6.754;2022-10-31T07:37:09;11.20;99.90
62007;DHT22;47963;53.008;6.754;2022-10-31T07:39:35;11.20;99.90
62007;DHT22;47963;53.008;6.754;2022-10-31T07:42:00;11.30;99.90
62007;DHT22;47963;53.008;6.754;2022-10-31T07:44:26;11.30;99.90
62007;DHT22;47963;53.008;6.754;2022-10-31T07:46:52;11.30;99.90
62007;DHT22;47963;53.008;6.754;2022-10-31T07:49:17;11.30;99.90
62007;DHT22;47963;53.008;6.754;2022-10-31T07:51:43;11.30;99.90
62007;DHT22;47963;53.008;6.754;2022-10-31T07:54:09;11.40;99.90
62007;DHT22;47963;53.008;6.754;2022-10-31T07:56:34;11.50;99.90
62007;DHT22;47963;53.008;6.754;2022-10-31T07:59:00;11.50;99.90
62007;DHT22;47963;53.008;6.754;2022-10-31T08:01:26;11.50;99.90
62007;DHT22;47963;53.008;6.754;2022-10-31T08:03:51;11.50;99.90
62007;DHT22;47963;53.008;6.754;2022-10-31T08:06:17;11.60;99.90
62007;DHT22;47963;53.008;6.754;2022-10-31T08:08:42;11.70;99.90
62007;DHT22;47963;53.008;6.754;2022-10-31T08:11:08;11.70;99.90
62007;DHT22;47963;53.008;6.754;2022-10-31T08:13:34;11.70;99.90
62007;DHT22;47963;53.008;6.754;2022-10-31T08:16:00;11.70;99.90
62007;DHT22;47963;53.008;6.754;2022-10-31T08:18:29;11.80;99.90
62007;DHT22;47963;53.008;6.754;2022-10-31T08:20:55;11.80;99.90
62007;DHT22;47963;53.008;6.754;2022-10-31T08:23:21;11.90;99.90
62007;DHT22;47963;53.008;6.754;2022-10-31T08:25:46;11.90;99.90
62007;DHT22;47963;53.008;6.754;2022-10-31T08:28:13;12.00;99.90
62007;DHT22;47963;53.008;6.754;2022-10-31T08:30:40;12.10;99.90
62007;DHT22;47963;53.008;6.754;2022-10-31T08:33:14;12.10;99.90
62007;DHT22;47963;53.008;6.754;2022-10-31T08:35:40;12.10;99.90
62007;DHT22;47963;53.008;6.754;2022-10-31T08:38:09;12.20;99.90
62007;DHT22;47963;53.008;6.754;2022-10-31T08:40:36;12.20;99.90
62007;DHT22;47963;53.008;6.754;2022-10-31T08:43:13;12.20;99.90
62007;DHT22;47963;53.008;6.754;2022-10-31T08:45:39;12.20;99.90
62007;DHT22;47963;53.008;6.754;2022-10-31T08:48:07;12.30;99.90
62007;DHT22;47963;53.008;6.754;2022-10-31T08:50:35;12.30;99.90
62007;DHT22;47963;53.008;6.754;2022-10-31T08:53:16;12.40;99.90
62007;DHT22;47963;53.008;6.754;2022-10-31T08:55:42;12.40;99.90
62007;DHT22;47963;53.008;6.754;2022-10-31T08:58:26;12.50;99.90
62007;DHT22;47963;53.008;6.754;2022-10-31T09:00:54;12.50;99.90
62007;DHT22;47963;53.008;6.754;2022-10-31T09:03:24;12.60;99.90
62007;DHT22;47963;53.008;6.754;2022-10-31T09:05:53;12.60;99.90
62007;DHT22;47963;53.008;6.754;2022-10-31T09:08:19;12.70;99.90
62007;DHT22;47963;53.008;6.754;2022-10-31T09:10:45;12.60;99.90
62007;DHT22;47963;53.008;6.754;2022-10-31T09:13:13;12.70;99.90
62007;DHT22;47963;53.008;6.754;2022-10-31T09:15:42;12.70;99.90
62007;DHT22;47963;53.008;6.754;2022-10-31T09:18:09;12.80;99.90
62007;DHT22;47963;53.008;6.754;2022-10-31T09:20:37;12.80;99.90
62007;DHT22;47963;53.008;6.754;2022-10-31T09:23:09;12.80;99.90
62007;DHT22;47963;53.008;6.754;2022-10-31T09:25:35;12.90;99.90
62007;DHT22;47963;53.008;6.754;2022-10-31T09:28:03;12.90;99.90
62007;DHT22;47963;53.008;6.754;2022-10-31T09:30:31;13.00;99.90
62007;DHT22;47963;53.008;6.754;2022-10-31T09:33:04;13.10;99.90
62007;DHT22;47963;53.008;6.754;2022-10-31T09:35:30;13.20;99.90
62007;DHT22;47963;53.008;6.754;2022-10-31T09:38:00;13.30;99.90
62007;DHT22;47963;53.008;6.754;2022-10-31T09:40:39;13.40;99.90
62007;DHT22;47963;53.008;6.754;2022-10-31T09:49:00;13.50;99.90
62007;DHT22;47963;53.008;6.754;2022-10-31T09:54:20;13.50;99.90
62007;DHT22;47963;53.008;6.754;2022-10-31T09:56:47;13.60;99.90
62007;DHT22;47963;53.008;6.754;2022-10-31T09:59:34;13.50;99.90
62007;DHT22;47963;53.008;6.754;2022-10-31T10:04:43;13.50;99.90
62007;DHT22;47963;53.008;6.754;2022-10-31T10:07:49;13.50;99.90
62007;DHT22;47963;53.008;6.754;2022-10-31T10:10:30;13.60;99.90
62007;DHT22;47963;53.008;6.754;2022-10-31T10:15:51;13.80;99.90
62007;DHT22;47963;53.008;6.754;2022-10-31T10:21:26;13.80;99.90
62007;DHT22;47963;53.008;6.754;2022-10-31T10:27:23;13.80;99.90
62007;DHT22;47963;53.008;6.754;2022-10-31T10:32:56;13.90;99.90
62007;DHT22;47963;53.008;6.754;2022-10-31T10:35:27;14.00;99.90
62007;DHT22;47963;53.008;6.754;2022-10-31T10:38:16;14.10;99.90
62007;DHT22;47963;53.008;6.754;2022-10-31T10:40:44;14.20;99.90
62007;DHT22;47963;53.008;6.754;2022-10-31T10:49:00;14.40;99.90
62007;DHT22;47963;53.008;6.754;2022-10-31T10:54:21;14.60;99.90
62007;DHT22;47963;53.008;6.754;2022-10-31T10:59:44;14.70;99.90
62007;DHT22;47963;53.008;6.754;2022-10-31T11:02:25;14.70;99.90
62007;DHT22;47963;53.008;6.754;2022-10-31T11:04:57;14.80;99.90
62007;DHT22;47963;53.008;6.754;2022-10-31T11:07:23;14.80;99.90
62007;DHT22;47963;53.008;6.754;2022-10-31T11:09:49;14.80;99.90
62007;DHT22;47963;53.008;6.754;2022-10-31T11:12:24;14.80;99.90
62007;DHT22;47963;53.008;6.754;2022-10-31T11:14:53;14.90;99.90
62007;DHT22;47963;53.008;6.754;2022-10-31T11:17:41;14.90;99.90
62007;DHT22;47963;53.008;6.754;2022-10-31T11:22:40;15.20;99.90
62007;DHT22;47963;53.008;6.754;2022-10-31T11:25:23;15.30;99.90
62007;DHT22;47963;53.008;6.754;2022-10-31T11:27:59;15.30;99.90
62007;DHT22;47963;53.008;6.754;2022-10-31T11:30:25;15.40;99.90
62007;DHT22;47963;53.008;6.754;2022-10-31T11:32:51;15.40;99.90
62007;DHT22;47963;53.008;6.754;2022-10-31T11:35:19;15.50;99.90
62007;DHT22;47963;53.008;6.754;2022-10-31T11:37:47;15.50;99.90
62007;DHT22;47963;53.008;6.754;2022-10-31T11:40:25;15.50;99.90
62007;DHT22;47963;53.008;6.754;2022-10-31T11:42:54;15.50;99.90
62007;DHT22;47963;53.008;6.754;2022-10-31T11:45:31;15.50;99.90
62007;DHT22;47963;53.008;6.754;2022-10-31T11:47:58;15.40;99.90
62007;DHT22;47963;53.008;6.754;2022-10-31T11:50:38;15.40;99.90
62007;DHT22;47963;53.008;6.754;2022-10-31T11:53:15;15.40;99.90
62007;DHT22;47963;53.008;6.754;2022-10-31T11:55:41;15.40;99.90
62007;DHT22;47963;53.008;6.754;2022-10-31T11:58:24;15.30;99.90
62007;DHT22;47963;53.008;6.754;2022-10-31T12:00:53;15.30;99.90
62007;DHT22;47963;53.008;6.754;2022-10-31T12:05:55;15.30;99.90
62007;DHT22;47963;53.008;6.754;2022-10-31T12:08:25;15.30;99.90
62007;DHT22;47963;53.008;6.754;2022-10-31T12:17:19;15.30;99.90
62007;DHT22;47963;53.008;6.754;2022-10-31T12:20:00;15.40;99.90
62007;DHT22;47963;53.008;6.754;2022-10-31T12:25:24;15.40;99.90
62007;DHT22;47963;53.008;6.754;2022-10-31T12:34:07;15.40;99.90
62007;DHT22;47963;53.008;6.754;2022-10-31T12:36:40;15.40;99.90
62007;DHT22;47963;53.008;6.754;2022-10-31T12:45:07;15.30;99.90
62007;DHT22;47963;53.008;6.754;2022-10-31T13:00:48;15.30;99.90
62007;DHT22;47963;53.008;6.754;2022-10-31T13:03:36;15.30;99.90
62007;DHT22;47963;53.008;6.754;2022-10-31T13:06:09;15.30;99.90
62007;DHT22;47963;53.008;6.754;2022-10-31T13:09:01;15.30;99.90
62007;DHT22;47963;53.008;6.754;2022-10-31T13:11:32;15.30;99.90
62007;DHT22;47963;53.008;6.754;2022-10-31T13:14:24;15.20;99.90
62007;DHT22;47963;53.008;6.754;2022-10-31T13:16:52;15.30;99.90
62007;DHT22;47963;53.008;6.754;2022-10-31T13:19:23;15.20;99.90
62007;DHT22;47963;53.008;6.754;2022-10-31T13:24:37;15.30;99.90
62007;DHT22;47963;53.008;6.754;2022-10-31T13:30:19;15.30;99.90
62007;DHT22;47963;53.008;6.754;2022-10-31T13:32:58;15.40;99.90
62007;DHT22;47963;53.008;6.754;2022-10-31T13:35:28;15.50;99.90
62007;DHT22;47963;53.008;6.754;2022-10-31T13:38:11;15.50;99.90
62007;DHT22;47963;53.008;6.754;2022-10-31T13:40:43;15.60;99.90
62007;DHT22;47963;53.008;6.754;2022-10-31T13:45:52;15.70;99.90
62007;DHT22;47963;53.008;6.754;2022-10-31T13:51:01;15.70;99.90
62007;DHT22;47963;53.008;6.754;2022-10-31T13:58:34;15.60;99.90
62007;DHT22;47963;53.008;6.754;2022-10-31T14:01:21;15.60;99.90
62007;DHT22;47963;53.008;6.754;2022-10-31T14:04:03;15.60;99.90
62007;DHT22;47963;53.008;6.754;2022-10-31T14:09:38;15.60;99.90
62007;DHT22;47963;53.008;6.754;2022-10-31T14:12:08;15.60;99.90
62007;DHT22;47963;53.008;6.754;2022-10-31T14:14:48;15.50;99.90
62007;DHT22;47963;53.008;6.754;2022-10-31T14:17:19;15.50;99.90
62007;DHT22;47963;53.008;6.754;2022-10-31T14:19:58;15.50;99.90
62007;DHT22;47963;53.008;6.754;2022-10-31T14:22:29;15.50;99.90
62007;DHT22;47963;53.008;6.754;2022-10-31T14:24:55;15.50;99.90
62007;DHT22;47963;53.008;6.754;2022-10-31T14:29:46;15.40;99.90
62007;DHT22;47963;53.008;6.754;2022-10-31T14:34:57;15.40;99.90
62007;DHT22;47963;53.008;6.754;2022-10-31T14:48:15;15.30;99.90
62007;DHT22;47963;53.008;6.754;2022-10-31T14:53:30;15.30;99.90
62007;DHT22;47963;53.008;6.754;2022-10-31T14:55:57;15.30;99.90
62007;DHT22;47963;53.008;6.754;2022-10-31T14:58:49;15.30;99.90
62007;DHT22;47963;53.008;6.754;2022-10-31T15:01:25;15.20;99.90
62007;DHT22;47963;53.008;6.754;2022-10-31T15:03:55;15.20;99.90
62007;DHT22;47963;53.008;6.754;2022-10-31T15:06:23;15.20;99.90
62007;DHT22;47963;53.008;6.754;2022-10-31T15:08:51;15.20;99.90
62007;DHT22;47963;53.008;6.754;2022-10-31T15:11:21;15.10;99.90
62007;DHT22;47963;53.008;6.754;2022-10-31T15:13:55;15.10;99.90
62007;DHT22;47963;53.008;6.754;2022-10-31T15:16:32;15.10;99.90
62007;DHT22;47963;53.008;6.754;2022-10-31T15:19:02;15.10;99.90
62007;DHT22;47963;53.008;6.754;2022-10-31T15:21:28;15.10;99.90
62007;DHT22;47963;53.008;6.754;2022-10-31T15:23:58;15.00;99.90
62007;DHT22;47963;53.008;6.754;2022-10-31T15:26:28;15.00;99.90
62007;DHT22;47963;53.008;6.754;2022-10-31T15:29:00;15.00;99.90
62007;DHT22;47963;53.008;6.754;2022-10-31T15:31:26;14.90;99.90
62007;DHT22;47963;53.008;6.754;2022-10-31T15:33:53;14.90;99.90
62007;DHT22;47963;53.008;6.754;2022-10-31T15:36:22;14.90;99.90
62007;DHT22;47963;53.008;6.754;2022-10-31T15:38:49;14.90;99.90
62007;DHT22;47963;53.008;6.754;2022-10-31T15:41:29;14.80;99.90
62007;DHT22;47963;53.008;6.754;2022-10-31T15:44:03;14.80;99.90
62007;DHT22;47963;53.008;6.754;2022-10-31T15:46:30;14.80;99.90
62007;DHT22;47963;53.008;6.754;2022-10-31T15:48:56;14.80;99.90
62007;DHT22;47963;53.008;6.754;2022-10-31T15:51:31;14.80;99.90
62007;DHT22;47963;53.008;6.754;2022-10-31T15:53:58;14.80;99.90
62007;DHT22;47963;53.008;6.754;2022-10-31T15:56:28;14.70;99.90
62007;DHT22;47963;53.008;6.754;2022-10-31T15:58:56;14.60;99.90
62007;DHT22;47963;53.008;6.754;2022-10-31T16:01:25;14.60;99.90
62007;DHT22;47963;53.008;6.754;2022-10-31T16:04:15;14.50;99.90
62007;DHT22;47963;53.008;6.754;2022-10-31T16:06:59;14.50;99.90
62007;DHT22;47963;53.008;6.754;2022-10-31T16:09:26;14.50;99.90
62007;DHT22;47963;53.008;6.754;2022-10-31T16:11:51;14.40;99.90
62007;DHT22;47963;53.008;6.754;2022-10-31T16:14:22;14.40;99.90
62007;DHT22;47963;53.008;6.754;2022-10-31T16:16:52;14.40;99.90
62007;DHT22;47963;53.008;6.754;2022-10-31T16:19:33;14.30;99.90
62007;DHT22;47963;53.008;6.754;2022-10-31T16:22:06;14.30;99.90
62007;DHT22;47963;53.008;6.754;2022-10-31T16:24:35;14.30;99.90
62007;DHT22;47963;53.008;6.754;2022-10-31T16:27:14;14.30;99.90
62007;DHT22;47963;53.008;6.754;2022-10-31T16:29:43;14.20;99.90
62007;DHT22;47963;53.008;6.754;2022-10-31T16:32:31;14.20;99.90
62007;DHT22;47963;53.008;6.754;2022-10-31T16:37:42;14.10;99.90
62007;DHT22;47963;53.008;6.754;2022-10-31T16:40:08;14.10;99.90
62007;DHT22;47963;53.008;6.754;2022-10-31T16:42:35;14.10;99.90
62007;DHT22;47963;53.008;6.754;2022-10-31T16:45:00;14.10;99.90
62007;DHT22;47963;53.008;6.754;2022-10-31T16:47:26;14.00;99.90
62007;DHT22;47963;53.008;6.754;2022-10-31T16:49:52;14.10;99.90
62007;DHT22;47963;53.008;6.754;2022-10-31T16:52:17;14.10;99.90
62007;DHT22;47963;53.008;6.754;2022-10-31T16:54:43;14.10;99.90
62007;DHT22;47963;53.008;6.754;2022-10-31T16:57:14;14.00;99.90
62007;DHT22;47963;53.008;6.754;2022-10-31T16:59:41;14.10;99.90
62007;DHT22;47963;53.008;6.754;2022-10-31T17:02:13;14.00;99.90
62007;DHT22;47963;53.008;6.754;2022-10-31T17:04:39;14.00;99.90
62007;DHT22;47963;53.008;6.754;2022-10-31T17:07:05;14.00;99.90
62007;DHT22;47963;53.008;6.754;2022-10-31T17:09:30;14.00;99.90
62007;DHT22;47963;53.008;6.754;2022-10-31T17:11:56;14.00;99.90
62007;DHT22;47963;53.008;6.754;2022-10-31T17:14:22;14.00;99.90
62007;DHT22;47963;53.008;6.754;2022-10-31T17:16:49;14.00;99.90
62007;DHT22;47963;53.008;6.754;2022-10-31T17:19:15;14.00;99.90
62007;DHT22;47963;53.008;6.754;2022-10-31T17:21:41;14.00;99.90
62007;DHT22;47963;53.008;6.754;2022-10-31T17:24:12;14.00;99.90
62007;DHT22;47963;53.008;6.754;2022-10-31T17:26:38;14.00;99.90
62007;DHT22;47963;53.008;6.754;2022-10-31T17:29:03;14.00;99.90
62007;DHT22;47963;53.008;6.754;2022-10-31T17:31:31;14.00;99.90
62007;DHT22;47963;53.008;6.754;2022-10-31T17:33:58;14.00;99.90
62007;DHT22;47963;53.008;6.754;2022-10-31T17:36:24;14.00;99.90
62007;DHT22;47963;53.008;6.754;2022-10-31T17:38:50;14.00;99.90
62007;DHT22;47963;53.008;6.754;2022-10-31T17:41:15;14.00;99.90
62007;DHT22;47963;53.008;6.754;2022-10-31T17:43:41;14.00;99.90
62007;DHT22;47963;53.008;6.754;2022-10-31T17:46:07;14.00;99.90
62007;DHT22;47963;53.008;6.754;2022-10-31T17:48:35;14.00;99.90
62007;DHT22;47963;53.008;6.754;2022-10-31T17:51:04;14.00;99.90
62007;DHT22;47963;53.008;6.754;2022-10-31T17:53:32;14.00;99.90
62007;DHT22;47963;53.008;6.754;2022-10-31T17:56:03;14.00;99.90
62007;DHT22;47963;53.008;6.754;2022-10-31T17:58:30;14.00;99.90
62007;DHT22;47963;53.008;6.754;2022-10-31T18:00:56;14.00;99.90
62007;DHT22;47963;53.008;6.754;2022-10-31T18:03:22;14.00;99.90
62007;DHT22;47963;53.008;6.754;2022-10-31T18:05:57;14.00;99.90
62007;DHT22;47963;53.008;6.754;2022-10-31T18:08:31;14.00;99.90